Time;durP1;ratioP1;P1;durP2;ratioP2;P2;SDS_P1;SDS_P2;PMS_P1;PMS_P2;Temp;Humidity;BMP_temperature;BMP_pressure;BME280_temperature;BME280_humidity;BME280_pressure;Samples;Min_cycle;Max_cycle;Signal;HPM_P1;HPM_P2
2022/04/17 00:02:23;;;;;;;16.77;6.88;;;;;;;11.95;84.96;100982.84;4991719;28;20094;-84
2022/04/17 00:04:49;;;;;;;13.25;7.47;;;;;;;11.90;85.74;100981.50;4976439;28;20048;-84
2022/04/17 00:07:18;;;;;;;11.95;6.55;;;;;;;12.11;84.20;100982.91;5008320;28;20037;-82
2022/04/17 00:09:45;;;;;;;11.20;6.30;;;;;;;11.97;84.67;100980.84;5009427;28;20031;-83
2022/04/17 00:12:11;;;;;;;11.57;7.00;;;;;;;11.95;84.60;100980.19;4991731;28;20097;-84
2022/04/17 00:14:37;;;;;;;13.45;6.63;;;;;;;12.01;84.79;100983.03;5006541;28;20125;-83
2022/04/17 00:17:03;;;;;;;11.07;6.10;;;;;;;12.02;84.21;100982.06;4991240;28;20049;-83
2022/04/17 00:19:29;;;;;;;16.60;6.97;;;;;;;11.87;84.57;100976.50;5009728;28;20047;-83
2022/04/17 00:21:56;;;;;;;15.88;6.93;;;;;;;11.72;85.59;100982.59;4975198;28;20038;-82
2022/04/17 00:24:27;;;;;;;14.85;6.03;;;;;;;11.90;84.96;100984.16;5005914;28;20037;-82
2022/04/17 00:26:54;;;;;;;13.32;6.85;;;;;;;11.73;85.27;100974.44;4974287;28;20037;-84
2022/04/17 00:29:20;;;;;;;17.70;6.93;;;;;;;11.68;85.84;100990.00;4990006;28;20054;-83
2022/04/17 00:31:47;;;;;;;10.18;6.15;;;;;;;11.61;85.90;100990.78;5018691;28;20014;-84
2022/04/17 00:34:12;;;;;;;9.63;6.35;;;;;;;11.60;86.94;100991.78;5016210;28;20026;-83
2022/04/17 00:36:41;;;;;;;12.43;6.82;;;;;;;11.63;87.08;100989.66;5007711;28;20051;-82
2022/04/17 00:39:09;;;;;;;11.20;5.90;;;;;;;11.70;87.17;100993.34;5007847;28;20042;-83
2022/04/17 00:41:36;;;;;;;13.80;6.57;;;;;;;11.66;87.03;100997.31;5008517;28;20138;-83
2022/04/17 00:44:02;;;;;;;12.27;7.07;;;;;;;11.69;87.39;100994.31;5008955;28;20066;-83
2022/04/17 00:46:27;;;;;;;12.70;6.75;;;;;;;11.47;88.93;101000.16;5008358;28;20038;-84
2022/04/17 00:48:53;;;;;;;13.88;6.85;;;;;;;11.37;89.25;100994.94;5007766;28;20038;-83
2022/04/17 00:51:18;;;;;;;8.50;6.15;;;;;;;11.55;87.65;100994.06;4975261;28;20085;-83
2022/04/17 00:53:46;;;;;;;10.82;6.28;;;;;;;11.51;86.86;100998.00;5008110;28;20481;-85
2022/04/17 00:56:19;;;;;;;12.43;5.53;;;;;;;11.71;85.12;100999.50;5008160;28;20031;-84
2022/04/17 00:58:44;;;;;;;;;;;;;;;11.75;84.38;101004.34;5007070;28;20050;-84
2022/04/17 01:01:10;;;;;;;9.13;5.47;;;;;;;11.84;84.48;100998.06;5007448;28;19990;-83
2022/04/17 01:03:35;;;;;;;11.60;5.97;;;;;;;11.84;83.58;100992.75;5007079;28;20034;-83
2022/04/17 01:06:01;;;;;;;8.18;5.30;;;;;;;11.57;85.22;100989.41;5007221;28;20120;-84
2022/04/17 01:08:27;;;;;;;15.07;6.18;;;;;;;11.46;85.83;100995.00;4956452;28;20476;-84
2022/04/17 01:10:53;;;;;;;10.65;6.45;;;;;;;11.49;86.03;100998.19;5006041;28;20034;-84
2022/04/17 01:13:19;;;;;;;12.82;5.70;;;;;;;11.41;86.01;100991.00;4987181;28;20045;-83
2022/04/17 01:15:45;;;;;;;8.63;5.93;;;;;;;11.63;84.31;100989.66;5002282;28;20034;-84
2022/04/17 01:18:14;;;;;;;12.73;6.97;;;;;;;11.55;85.38;101002.03;5004989;28;20527;-85
2022/04/17 01:20:42;;;;;;;11.60;5.78;;;;;;;11.72;83.95;100999.34;4991616;28;20138;-83
2022/04/17 01:29:01;;;;;;;10.20;5.70;;;;;;;11.53;83.62;101002.19;4978884;28;20042;-83
2022/04/17 01:31:27;;;;;;;7.22;5.10;;;;;;;11.46;84.04;101005.63;4992479;28;20042;-83
2022/04/17 01:33:53;;;;;;;10.18;5.72;;;;;;;11.33;85.03;101009.50;4993170;28;20041;-82
2022/04/17 01:36:18;;;;;;;8.77;5.38;;;;;;;11.31;85.61;101000.03;5008872;28;20380;-83
2022/04/17 01:38:44;;;;;;;9.73;5.72;;;;;;;11.12;86.61;101014.34;5008341;28;20520;-83
2022/04/17 01:41:09;;;;;;;9.80;5.30;;;;;;;11.01;86.89;101009.25;5007792;28;20098;-85
2022/04/17 01:43:35;;;;;;;11.02;5.13;;;;;;;11.00;86.80;101009.44;4988963;28;20054;-85
2022/04/17 01:46:03;;;;;;;12.13;5.97;;;;;;;11.04;87.72;101008.09;4974172;28;20417;-83
2022/04/17 01:48:29;;;;;;;7.28;4.93;;;;;;;10.86;88.26;101010.78;4997240;28;20023;-85
2022/04/17 01:50:55;;;;;;;12.45;5.82;;;;;;;10.74;89.02;101010.16;4973731;28;20089;-85
2022/04/17 01:53:39;;;;;;;9.02;5.20;;;;;;;11.02;86.99;101020.69;4986607;28;20045;-86
2022/04/17 01:56:05;;;;;;;7.05;4.93;;;;;;;10.81;87.78;101016.53;5003806;28;20030;-85
2022/04/17 01:58:32;;;;;;;8.43;4.45;;;;;;;11.06;85.65;101012.31;4999136;28;20070;-84
2022/04/17 02:00:57;;;;;;;8.75;4.53;;;;;;;10.87;85.73;101021.22;5004268;28;20430;-85
2022/04/17 02:03:24;;;;;;;9.82;5.25;;;;;;;10.95;85.61;101017.00;4989828;28;20112;-84
2022/04/17 02:06:54;;;;;;;9.23;4.55;;;;;;;10.93;85.41;101011.84;4994342;28;20035;-85
2022/04/17 02:09:24;;;;;;;7.03;4.75;;;;;;;10.78;86.76;101018.66;4995576;28;20042;-85
2022/04/17 02:11:49;;;;;;;10.88;4.88;;;;;;;10.56;88.65;101025.25;5001811;28;20058;-84
2022/04/17 02:14:34;;;;;;;9.07;4.90;;;;;;;10.32;90.13;101024.97;4991860;28;20027;-84
2022/04/17 02:17:00;;;;;;;9.50;4.75;;;;;;;10.41;90.64;101023.25;4977800;28;20065;-84
2022/04/17 02:19:26;;;;;;;6.72;4.80;;;;;;;10.37;89.28;101020.06;4980300;28;20441;-84
2022/04/17 02:21:52;;;;;;;11.00;4.80;;;;;;;10.38;88.80;101025.22;5002894;28;20030;-85
2022/04/17 02:24:42;;;;;;;9.38;4.50;;;;;;;10.51;87.41;101021.34;4973945;28;20047;-84
2022/04/17 02:27:08;;;;;;;7.97;4.65;;;;;;;10.48;85.84;101027.78;4991880;28;20034;-85
2022/04/17 02:29:34;;;;;;;11.25;4.40;;;;;;;10.25;87.80;101021.22;4991293;28;20127;-83
2022/04/17 02:32:00;;;;;;;8.98;5.25;;;;;;;10.06;89.73;101023.97;4973379;28;20030;-84
2022/04/17 02:34:28;;;;;;;9.90;5.30;;;;;;;9.95;91.69;101024.97;4974621;28;20105;-85
2022/04/17 02:36:54;;;;;;;7.90;5.10;;;;;;;9.78;91.81;101021.28;4991043;28;20031;-84
2022/04/17 02:39:19;;;;;;;6.63;4.70;;;;;;;10.01;90.15;101024.38;4990810;28;20490;-84
2022/04/17 02:41:48;;;;;;;12.70;4.72;;;;;;;9.85;90.30;101030.31;4975173;28;20047;-84
2022/04/17 02:44:13;;;;;;;7.55;4.50;;;;;;;9.78;89.57;101034.50;4979548;28;20026;-82
2022/04/17 02:49:24;;;;;;;7.88;3.88;;;;;;;9.82;88.45;101027.94;4999072;28;20051;-83
2022/04/17 02:51:50;;;;;;;7.45;3.92;;;;;;;9.75;87.61;101029.50;4999115;28;20030;-85
2022/04/17 02:54:16;;;;;;;10.15;4.07;;;;;;;9.65;88.29;101033.16;4982633;28;20095;-85
2022/04/17 02:56:41;;;;;;;5.35;3.88;;;;;;;9.62;88.54;101034.28;4982446;28;20035;-85
2022/04/17 02:59:09;;;;;;;8.02;3.85;;;;;;;9.80;87.57;101040.50;4966255;28;20058;-86
2022/04/17 03:07:07;;;;;;;6.90;3.63;;;;;;;9.90;84.41;101048.41;4999204;28;20027;-86
2022/04/17 03:09:33;;;;;;;7.55;3.85;;;;;;;9.69;85.95;101040.69;4966735;28;20031;-86
2022/04/17 03:11:59;;;;;;;4.60;2.95;;;;;;;9.95;83.35;101055.91;4982190;28;20054;-85
2022/04/17 03:14:25;;;;;;;10.25;3.50;;;;;;;9.84;83.49;101044.50;4988180;28;20031;-84
2022/04/17 03:16:53;;;;;;;4.50;2.97;;;;;;;9.77;83.09;101051.38;4965739;28;20057;-85
2022/04/17 03:19:25;;;;;;;4.70;3.25;;;;;;;9.61;83.85;101051.13;4998620;28;20023;-85
2022/04/17 03:21:50;;;;;;;5.53;3.10;;;;;;;9.57;83.79;101056.88;4998580;28;20031;-86
2022/04/17 03:24:15;;;;;;;8.20;3.28;;;;;;;9.62;82.66;101047.50;4998675;28;20050;-84
2022/04/17 03:26:44;;;;;;;5.30;3.20;;;;;;;9.55;82.93;101049.06;4982114;28;20027;-86
2022/04/17 03:29:09;;;;;;;5.72;3.42;;;;;;;9.44;83.90;101046.59;4969734;28;20055;-84
2022/04/17 03:31:35;;;;;;;6.10;3.67;;;;;;;9.66;82.15;101045.41;4985809;28;20055;-86
2022/04/17 03:34:06;;;;;;;5.35;3.20;;;;;;;9.51;82.58;101047.66;5002382;28;20098;-85
2022/04/17 03:36:34;;;;;;;3.42;2.50;;;;;;;9.45;84.30;101042.09;5001964;28;20037;-85
2022/04/17 03:38:59;;;;;;;8.63;3.78;;;;;;;9.58;82.60;101051.41;4996081;28;20046;-86
2022/04/17 03:41:26;;;;;;;8.50;3.20;;;;;;;9.63;80.88;101051.84;4995930;28;20046;-85
2022/04/17 03:43:52;;;;;;;6.03;3.60;;;;;;;9.42;82.43;101059.09;4979368;28;20035;-84
2022/04/17 03:46:17;;;;;;;6.63;3.40;;;;;;;9.48;81.45;101053.25;4994915;28;20066;-84
2022/04/17 03:48:43;;;;;;;9.88;3.10;;;;;;;9.30;82.92;101049.66;4994408;28;20030;-85
2022/04/17 03:51:08;;;;;;;5.43;3.75;;;;;;;9.25;82.35;101051.88;4995260;28;20035;-84
2022/04/17 03:53:35;;;;;;;7.10;3.20;;;;;;;9.18;84.21;101053.44;4993339;28;20047;-85
2022/04/17 03:56:00;;;;;;;5.70;3.53;;;;;;;9.00;85.13;101049.81;4993330;28;20041;-87
2022/04/17 03:58:26;;;;;;;7.50;3.28;;;;;;;8.90;85.04;101046.34;4976322;28;20042;-84
2022/04/17 04:00:52;;;;;;;7.88;3.58;;;;;;;8.95;84.96;101038.84;4977187;28;20043;-85
2022/04/17 04:03:18;;;;;;;6.45;3.45;;;;;;;8.90;84.99;101046.34;4975646;28;20034;-85
2022/04/17 04:05:43;;;;;;;5.18;3.00;;;;;;;8.80;85.10;101041.88;4992164;28;20069;-84
2022/04/17 04:08:09;;;;;;;8.23;3.40;;;;;;;8.78;84.94;101033.25;4993919;28;20051;-84
2022/04/17 04:10:35;;;;;;;6.35;3.30;;;;;;;8.73;84.94;101042.56;4976664;28;20254;-85
2022/04/17 04:13:04;;;;;;;6.47;3.20;;;;;;;8.78;84.33;101022.66;4993628;28;20054;-85
2022/04/17 04:15:30;;;;;;;4.60;3.25;;;;;;;8.69;84.19;101039.34;4978081;28;20041;-85
2022/04/17 04:17:56;;;;;;;5.90;3.42;;;;;;;8.65;84.95;101032.66;4976104;28;20078;-85
2022/04/17 04:20:22;;;;;;;8.75;3.60;;;;;;;8.66;83.99;101042.28;4987232;28;20110;-84
2022/04/17 04:22:48;;;;;;;6.90;3.08;;;;;;;8.66;83.08;101039.63;4992830;28;20485;-85
2022/04/17 04:25:14;;;;;;;10.65;3.00;;;;;;;8.67;82.80;101045.75;4992754;28;20039;-85
2022/04/17 04:30:24;;;;;;;6.00;3.10;;;;;;;8.58;83.44;101052.72;4985066;28;20026;-85
2022/04/17 04:32:56;;;;;;;8.20;3.05;;;;;;;8.71;82.41;101052.44;4996692;28;20106;-85
2022/04/17 04:35:29;;;;;;;7.07;3.17;;;;;;;8.74;82.67;101047.72;4976683;28;20019;-85
2022/04/17 04:38:00;;;;;;;7.90;3.47;;;;;;;8.65;82.90;101056.44;4993161;28;20034;-86
2022/04/17 04:40:30;;;;;;;6.47;3.10;;;;;;;8.73;82.29;101056.63;4992323;28;20050;-84
2022/04/17 04:43:02;;;;;;;7.60;4.47;;;;;;;8.81;82.80;101058.59;4993183;28;20051;-86
2022/04/17 04:51:13;;;;;;;7.97;4.65;;;;;;;8.89;81.92;101066.63;4995194;28;20041;-85
2022/04/17 04:53:40;;;;;;;9.02;4.18;;;;;;;9.02;80.63;101063.72;4974631;28;20046;-87
2022/04/17 04:56:06;;;;;;;10.20;4.40;;;;;;;9.20;80.24;101072.63;4991288;28;20039;-86
2022/04/17 04:58:32;;;;;;;11.40;4.07;;;;;;;8.92;81.09;101078.75;4977294;28;20182;-89
2022/04/17 05:00:58;;;;;;;8.02;4.30;;;;;;;8.66;82.98;101073.97;4974050;28;20066;-87
2022/04/17 05:03:27;;;;;;;7.00;3.92;;;;;;;8.84;83.19;101074.16;4990826;28;20035;-88
2022/04/17 05:05:56;;;;;;;13.43;4.38;;;;;;;9.07;81.95;101069.44;4974220;28;20062;-88
2022/04/17 05:08:22;;;;;;;12.40;4.00;;;;;;;9.33;79.30;101076.66;4973058;28;20097;-87
2022/04/17 05:10:51;;;;;;;5.38;3.65;;;;;;;9.45;77.04;101081.78;4990882;28;20043;-88
2022/04/17 05:13:41;;;;;;;8.43;4.30;;;;;;;9.59;74.20;101082.19;4991999;28;20105;-85
2022/04/17 05:16:07;;;;;;;6.88;3.90;;;;;;;9.82;71.82;101083.53;4975143;28;20049;-87
2022/04/17 05:18:38;;;;;;;10.48;3.40;;;;;;;9.94;68.39;101096.63;4992107;28;20031;-87
2022/04/17 05:21:08;;;;;;;10.55;3.33;;;;;;;10.34;67.77;101095.38;4975028;28;20046;-89
2022/04/17 05:23:37;;;;;;;11.18;3.33;;;;;;;10.89;63.53;101096.19;4978862;28;20023;-88
2022/04/17 05:26:04;;;;;;;8.65;3.30;;;;;;;11.19;63.95;101105.59;4991964;28;20070;-87
2022/04/17 05:28:39;;;;;;;12.63;2.88;;;;;;;11.21;60.86;101102.78;4961022;28;20070;-87
2022/04/17 05:31:15;;;;;;;12.48;3.03;;;;;;;11.07;59.56;101103.31;4991680;28;20089;-88
2022/04/17 05:33:44;;;;;;;12.23;3.00;;;;;;;12.05;55.67;101095.13;4993204;28;20041;-86
2022/04/17 05:36:13;;;;;;;9.40;2.75;;;;;;;12.40;51.70;101108.25;4972811;28;20078;-88
2022/04/17 05:38:40;;;;;;;10.57;2.83;;;;;;;12.35;50.51;101119.41;4982479;28;20042;-84
2022/04/17 05:41:09;;;;;;;10.35;2.70;;;;;;;12.67;48.84;101124.00;4986247;28;20402;-86
2022/04/17 05:43:43;;;;;;;17.02;2.97;;;;;;;13.56;45.99;101126.84;4994001;28;20026;-85
2022/04/17 05:46:12;;;;;;;12.73;2.70;;;;;;;13.06;48.13;101128.78;4971100;28;20445;-84
2022/04/17 05:48:39;;;;;;;17.90;2.88;;;;;;;13.18;46.28;101132.81;4980687;28;20069;-80
2022/04/17 05:51:04;;;;;;;13.95;2.85;;;;;;;13.31;45.35;101128.69;4978976;28;20398;-84
2022/04/17 05:53:31;;;;;;;15.43;2.80;;;;;;;13.37;43.62;101137.84;4979169;28;20034;-80
2022/04/17 05:55:59;;;;;;;9.18;2.47;;;;;;;13.30;44.39;101132.34;4989995;28;20182;-85
2022/04/17 05:58:25;;;;;;;7.85;2.72;;;;;;;13.28;44.22;101136.16;4989404;28;20054;-85
2022/04/17 06:03:28;;;;;;;14.80;2.80;;;;;;;14.51;40.40;101131.38;5020070;23;20058;-83
2022/04/17 06:06:07;;;;;;;14.75;2.90;;;;;;;13.03;44.18;101129.09;4970440;29;20051;-83
2022/04/17 06:08:43;;;;;;;8.20;2.75;;;;;;;13.74;42.66;101137.34;4968118;29;20121;-86
2022/04/17 06:11:12;;;;;;;8.45;2.47;;;;;;;12.93;43.34;101135.38;4973716;29;20041;-85
2022/04/17 06:13:41;;;;;;;22.73;2.58;;;;;;;13.19;43.78;101139.81;4954504;29;20100;-89
2022/04/17 06:16:07;;;;;;;12.60;2.38;;;;;;;13.78;41.90;101134.19;4971397;29;20019;-86
2022/04/17 06:18:39;;;;;;;18.48;2.83;;;;;;;13.87;41.36;101138.50;4967698;29;20039;-80
2022/04/17 06:21:18;;;;;;;12.38;2.10;;;;;;;14.83;38.91;101143.72;4969834;29;20032;-84
2022/04/17 06:24:06;;;;;;;12.32;2.28;;;;;;;14.78;38.58;101140.78;4953134;29;20035;-87
2022/04/17 06:26:33;;;;;;;20.98;2.85;;;;;;;14.70;38.73;101136.28;4970870;29;20039;-84
2022/04/17 06:29:05;;;;;;;15.75;2.47;;;;;;;14.44;40.15;101141.06;4950796;29;20042;-80
2022/04/17 06:31:45;;;;;;;12.90;2.63;;;;;;;15.35;36.91;101131.38;4962574;29;20229;-81
2022/04/17 06:34:20;;;;;;;11.30;2.45;;;;;;;15.31;37.61;101142.63;4953851;29;20050;-84
2022/04/17 06:36:57;;;;;;;19.52;2.53;;;;;;;15.19;38.51;101138.69;4962471;29;20031;-84
2022/04/17 06:39:31;;;;;;;7.78;2.45;;;;;;;14.62;38.67;101124.81;4973706;23;20050;-87
2022/04/17 06:42:16;;;;;;;10.55;2.65;;;;;;;14.85;37.89;101136.38;4960157;29;20027;-80
2022/04/17 06:44:44;;;;;;;12.98;2.70;;;;;;;14.47;38.15;101138.06;4969320;23;20110;-83
2022/04/17 06:47:10;;;;;;;10.43;3.17;;;;;;;14.77;38.94;101139.09;4953236;29;20039;-80
2022/04/17 06:49:39;;;;;;;11.85;2.55;;;;;;;14.25;38.92;101144.09;4939919;29;20067;-81
2022/04/17 06:52:04;;;;;;;14.38;2.47;;;;;;;14.92;38.01;101138.19;4945757;29;20060;-81
2022/04/17 06:54:30;;;;;;;11.02;2.50;;;;;;;15.21;38.06;101137.50;4945870;29;20094;-82
2022/04/17 06:56:59;;;;;;;12.70;2.28;;;;;;;15.03;35.83;101128.94;4927420;29;20035;-83
2022/04/17 06:59:27;;;;;;;12.15;2.17;;;;;;;14.69;38.19;101120.44;4948345;29;20035;-81
2022/04/17 07:01:55;;;;;;;17.27;2.70;;;;;;;14.62;37.77;101128.31;4946427;29;20127;-81
2022/04/17 07:04:21;;;;;;;8.57;2.30;;;;;;;14.70;36.91;101143.47;4949946;29;20087;-82
2022/04/17 07:06:46;;;;;;;11.05;2.47;;;;;;;14.25;37.89;101128.09;4949342;29;20443;-83
2022/04/17 07:09:13;;;;;;;14.38;2.55;;;;;;;14.46;38.12;101131.06;4951127;29;20038;-82
2022/04/17 07:11:38;;;;;;;7.00;2.60;;;;;;;14.65;36.41;101135.97;4953291;29;20027;-81
2022/04/17 07:14:06;;;;;;;6.75;2.47;;;;;;;14.94;36.64;101146.03;4935762;29;20070;-82
2022/04/17 07:16:32;;;;;;;16.38;2.75;;;;;;;14.73;37.29;101130.59;4968734;29;20094;-80
2022/04/17 07:18:58;;;;;;;7.72;2.35;;;;;;;15.03;35.48;101144.97;4964930;29;20075;-81
2022/04/17 07:21:26;;;;;;;10.30;2.70;;;;;;;15.30;35.35;101151.63;4952022;29;20465;-80
2022/04/17 07:23:52;;;;;;;12.48;2.10;;;;;;;14.67;34.15;101133.13;4970504;23;20038;-82
2022/04/17 07:26:17;;;;;;;9.32;2.67;;;;;;;14.55;36.12;101135.34;5003837;28;20042;-80
2022/04/17 07:28:46;;;;;;;8.60;2.40;;;;;;;15.20;34.86;101151.03;4971777;28;20030;-82
2022/04/17 07:31:11;;;;;;;13.55;2.55;;;;;;;14.78;34.37;101141.56;4989853;28;20042;-84
2022/04/17 07:33:37;;;;;;;11.40;2.15;;;;;;;14.99;34.35;101132.97;4992893;28;20035;-84
2022/04/17 07:36:06;;;;;;;7.63;2.47;;;;;;;15.49;33.72;101140.50;5013438;28;20030;-87
2022/04/17 07:38:41;;;;;;;6.25;2.75;;;;;;;15.39;33.35;101139.88;4998912;28;20046;-83
2022/04/17 07:41:08;;;;;;;9.48;2.30;;;;;;;15.41;34.43;101137.88;4998449;28;20030;-85
2022/04/17 07:49:28;;;;;;;6.38;2.00;;;;;;;15.04;34.12;101129.78;3163677;23;20102;-82
2022/04/17 07:51:55;;;;;;;5.25;2.33;;;;;;;14.89;34.44;101143.03;4972891;29;20039;-84
2022/04/17 07:54:21;;;;;;;8.05;2.38;;;;;;;15.35;33.34;101150.09;4955309;29;20063;-83
2022/04/17 07:56:49;;;;;;;5.65;2.20;;;;;;;14.92;34.66;101111.47;4971637;29;20039;-86
2022/04/17 07:59:14;;;;;;;8.32;2.95;;;;;;;15.30;33.61;101119.59;4955312;29;20077;-84
2022/04/17 08:01:48;;;;;;;13.10;2.55;;;;;;;15.52;33.56;101130.28;4971088;29;20027;-85
2022/04/17 08:04:14;;;;;;;7.50;2.65;;;;;;;15.71;32.56;101128.16;4973630;29;20035;-88
2022/04/17 08:06:40;;;;;;;6.22;1.98;;;;;;;15.20;33.29;101116.31;4956632;29;20055;-88
2022/04/17 08:09:08;;;;;;;6.28;2.25;;;;;;;15.33;34.27;101124.56;4972978;29;20046;-87
2022/04/17 08:11:37;;;;;;;7.78;2.75;;;;;;;15.00;34.05;101114.13;4976067;29;20031;-85
2022/04/17 08:14:03;;;;;;;10.55;2.60;;;;;;;15.56;34.28;101120.09;4956266;29;20035;-84
2022/04/17 08:16:29;;;;;;;7.22;2.70;;;;;;;16.20;32.76;101120.47;4972513;29;20059;-84
2022/04/17 08:18:55;;;;;;;10.43;2.63;;;;;;;15.80;32.43;101122.53;4963732;28;20058;-84
2022/04/17 08:21:21;;;;;;;11.60;2.95;;;;;;;15.69;32.22;101131.00;4962046;29;20043;-87
2022/04/17 08:23:50;;;;;;;8.35;2.85;;;;;;;15.31;33.56;101126.59;4959677;29;20042;-85
2022/04/17 08:26:17;;;;;;;5.20;2.38;;;;;;;15.28;33.57;101126.97;4974705;29;20107;-84
2022/04/17 08:28:42;;;;;;;5.85;2.45;;;;;;;15.68;33.06;101117.78;4982025;28;20016;-88
2022/04/17 08:31:10;;;;;;;13.60;2.80;;;;;;;16.49;32.33;101118.63;4975562;29;20039;-84
2022/04/17 08:33:35;;;;;;;8.60;2.38;;;;;;;16.27;31.58;101121.41;4970153;29;20054;-84
2022/04/17 08:36:30;;;;;;;12.57;3.13;;;;;;;15.87;32.99;101122.66;4969729;29;20075;-90
2022/04/17 08:38:58;;;;;;;11.50;2.67;;;;;;;15.48;33.43;101117.47;4919151;29;20059;-88
2022/04/17 08:41:27;;;;;;;8.55;2.83;;;;;;;15.53;33.97;101112.44;4934052;29;20048;-85
2022/04/17 08:43:56;;;;;;;9.00;2.92;;;;;;;16.01;32.47;101101.25;4956089;29;20031;-91
2022/04/17 08:46:25;;;;;;;6.82;2.80;;;;;;;16.40;30.99;101108.22;4954793;29;20039;-86
2022/04/17 08:48:54;;;;;;;7.18;2.28;;;;;;;16.02;31.73;101102.94;4953523;29;20047;-85
2022/04/17 08:51:22;;;;;;;11.13;2.58;;;;;;;16.40;31.92;101100.19;4972437;29;20095;-86
2022/04/17 08:53:53;;;;;;;8.38;3.05;;;;;;;16.41;32.68;101099.97;4973477;29;20039;-86
2022/04/17 08:56:22;;;;;;;10.00;3.13;;;;;;;16.02;31.51;101097.59;4973709;29;20046;-85
2022/04/17 08:58:48;;;;;;;9.77;4.43;;;;;;;16.60;31.21;101092.44;4973291;29;20036;-85
2022/04/17 09:01:17;;;;;;;19.02;3.05;;;;;;;16.73;31.17;101081.88;4971043;29;20201;-89
2022/04/17 09:03:46;;;;;;;10.38;2.92;;;;;;;16.21;32.02;101087.34;4971227;29;20099;-84
2022/04/17 09:06:19;;;;;;;7.90;3.07;;;;;;;16.43;31.58;101091.78;4926083;29;20115;-85
2022/04/17 09:09:00;;;;;;;10.57;2.78;;;;;;;16.76;31.28;101082.34;4974236;29;20039;-88
2022/04/17 09:11:36;;;;;;;8.23;2.83;;;;;;;16.45;31.61;101085.22;4974613;29;20058;-88
2022/04/17 09:14:06;;;;;;;10.13;3.05;;;;;;;16.37;31.21;101076.47;4970566;29;20035;-87
2022/04/17 09:16:38;;;;;;;7.18;2.97;;;;;;;15.99;31.39;101079.25;4956120;29;20039;-87
2022/04/17 09:19:15;;;;;;;10.52;3.20;;;;;;;16.12;31.32;101073.25;4955539;29;20053;-89
2022/04/17 09:21:43;;;;;;;6.93;3.22;;;;;;;16.42;31.72;101082.91;4962389;28;20034;-87
2022/04/17 09:24:13;;;;;;;9.20;2.72;;;;;;;16.44;30.48;101096.09;4962581;28;20403;-84
2022/04/17 09:26:56;;;;;;;6.90;3.25;;;;;;;16.90;30.87;101088.69;4941148;29;20114;-86
2022/04/17 09:29:23;;;;;;;8.68;3.05;;;;;;;16.79;30.62;101073.94;4953304;29;20051;-89
2022/04/17 09:32:00;;;;;;;6.28;2.97;;;;;;;17.04;30.25;101088.59;4968784;29;20073;-89
2022/04/17 09:35:05;;;;;;;11.10;3.55;;;;;;;17.45;30.42;101075.41;4969404;29;20074;-88
2022/04/17 09:37:45;;;;;;;9.80;2.60;;;;;;;16.80;30.57;101072.09;4975978;29;20111;-89
2022/04/17 09:40:11;;;;;;;12.82;2.72;;;;;;;16.82;31.35;101065.53;4949784;29;20059;-89
2022/04/17 09:42:47;;;;;;;12.38;3.80;;;;;;;16.92;31.48;101062.53;4941381;29;20023;-89
2022/04/17 09:45:13;;;;;;;10.30;4.03;;;;;;;17.28;31.03;101049.06;4958797;29;20039;-89
2022/04/17 09:47:55;;;;;;;9.73;3.22;;;;;;;17.55;31.05;101035.72;4962272;29;20031;-87
2022/04/17 09:50:34;;;;;;;12.25;3.60;;;;;;;17.55;32.45;101051.81;4958133;29;20074;-86
2022/04/17 09:53:06;;;;;;;6.87;2.70;;;;;;;17.90;30.58;101052.66;4949963;29;20035;-86
2022/04/17 09:55:38;;;;;;;11.98;2.78;;;;;;;17.18;31.27;101076.19;4893588;29;20054;-85
2022/04/17 09:58:11;;;;;;;9.30;2.97;;;;;;;16.80;31.00;101043.47;4965895;29;20051;-84
2022/04/17 10:00:43;;;;;;;8.73;2.80;;;;;;;17.31;32.08;101027.25;4931804;29;20915;-87
2022/04/17 10:03:10;;;;;;;;;;;;;;;17.83;30.51;101019.63;4961585;29;20027;-86
2022/04/17 10:05:41;;;;;;;8.40;2.88;;;;;;;17.83;30.57;101034.91;4973654;28;20344;-88
2022/04/17 10:08:10;;;;;;;10.75;3.10;;;;;;;17.64;30.94;101032.88;4967504;28;20121;-86
2022/04/17 10:10:47;;;;;;;8.38;2.58;;;;;;;17.13;31.71;101024.22;4934102;29;20383;-82
2022/04/17 10:13:13;;;;;;;9.25;2.40;;;;;;;17.78;31.15;101003.31;4948376;29;20126;-89
2022/04/17 10:15:40;;;;;;;14.52;3.13;;;;;;;18.23;30.39;101009.13;4949618;29;20395;-84
2022/04/17 10:18:07;;;;;;;12.82;2.80;;;;;;;17.99;30.40;101002.41;4934274;29;20055;-88
2022/04/17 10:20:35;;;;;;;10.40;3.05;;;;;;;18.08;30.11;100993.16;4953904;29;20027;-88
2022/04/17 10:23:09;;;;;;;8.10;2.30;;;;;;;18.85;29.37;101012.44;4948197;29;20051;-86
2022/04/17 10:25:40;;;;;;;11.30;2.85;;;;;;;18.59;28.48;101002.44;4953766;29;20043;-87
2022/04/17 10:28:09;;;;;;;5.97;2.25;;;;;;;18.40;29.12;101010.41;4953590;29;20058;-88
2022/04/17 10:30:59;;;;;;;10.25;2.15;;;;;;;17.78;29.87;100995.25;4969910;29;20075;-90
2022/04/17 10:33:46;;;;;;;8.75;2.70;;;;;;;18.18;29.55;100987.41;4968321;29;20079;-89
2022/04/17 10:36:32;;;;;;;11.48;2.80;;;;;;;18.25;29.81;100993.63;4968688;29;20043;-89
2022/04/17 10:39:20;;;;;;;8.07;2.22;;;;;;;18.54;28.20;100988.81;4970111;29;20041;-92
2022/04/17 10:41:50;;;;;;;7.88;2.30;;;;;;;17.90;29.25;100991.00;4939168;29;20138;-88
2022/04/17 10:44:21;;;;;;;8.27;2.42;;;;;;;17.71;29.68;100983.66;4941738;28;20075;-88
2022/04/17 10:46:57;;;;;;;6.05;2.25;;;;;;;17.87;29.10;100961.88;4967391;28;20023;-88
2022/04/17 10:49:29;;;;;;;9.18;2.85;;;;;;;17.80;30.22;100966.38;4935228;29;20114;-88
2022/04/17 10:52:02;;;;;;;10.35;2.75;;;;;;;18.61;29.10;100970.03;4937080;29;20048;-89
2022/04/17 10:55:10;;;;;;;8.00;2.83;;;;;;;19.44;27.90;100966.78;4934661;29;20047;-86
2022/04/17 10:57:43;;;;;;;9.98;2.38;;;;;;;20.25;26.51;100974.41;4961067;29;20047;-86
2022/04/17 11:00:33;;;;;;;15.48;7.80;;;;;;;20.27;25.87;100964.28;4945977;29;20106;-82
2022/04/17 11:03:02;;;;;;;38.10;22.48;;;;;;;20.45;25.80;100957.13;4964554;29;20046;-86
2022/04/17 11:06:08;;;;;;;9.23;2.88;;;;;;;20.70;25.12;100949.13;4935767;29;20036;-82
2022/04/17 11:08:25;;;;;;;13.75;7.03;;;;;;;20.79;25.65;100942.41;4958013;28;20097;-80
2022/04/17 11:11:18;;;;;;;14.90;8.38;;;;;;;21.65;24.57;100942.47;4929993;29;20130;-82
2022/04/17 11:14:10;;;;;;;12.02;4.15;;;;;;;20.08;25.66;100941.78;4944961;29;20048;-84
2022/04/17 11:17:08;;;;;;;17.10;8.20;;;;;;;19.19;25.39;100932.69;4930754;29;20050;-86
2022/04/17 11:19:38;;;;;;;22.38;10.68;;;;;;;18.85;25.52;100939.91;4949370;29;20035;-82
2022/04/17 11:22:06;;;;;;;14.80;3.78;;;;;;;19.68;24.49;100934.88;4964918;29;20041;-82
2022/04/17 11:24:54;;;;;;;6.22;2.42;;;;;;;19.67;23.90;100931.38;4948609;29;20038;-83
2022/04/17 11:27:48;;;;;;;8.63;5.15;;;;;;;19.99;23.93;100914.28;4964634;29;20035;-82
2022/04/17 11:30:14;;;;;;;11.15;2.63;;;;;;;20.70;22.79;100914.09;4953384;29;20047;-84
2022/04/17 11:32:39;;;;;;;7.63;3.60;;;;;;;21.52;21.52;100924.56;4963839;29;20035;-83
2022/04/17 11:35:10;;;;;;;13.60;5.25;;;;;;;21.14;21.91;100930.13;4967374;29;20035;-84
2022/04/17 11:38:02;;;;;;;8.38;3.55;;;;;;;19.72;21.88;100920.78;4965554;29;20230;-82
2022/04/17 11:40:31;;;;;;;7.60;2.30;;;;;;;19.35;23.05;100921.50;4963955;29;20074;-85
2022/04/17 11:43:03;;;;;;;4.18;1.92;;;;;;;19.49;23.38;100907.00;4948040;29;20035;-84
2022/04/17 11:45:30;;;;;;;6.65;2.97;;;;;;;18.30;24.66;100900.75;4964096;29;20050;-82
2022/04/17 11:48:02;;;;;;;14.15;2.60;;;;;;;17.56;27.25;100898.00;4964173;28;20073;-82
2022/04/17 11:50:29;;;;;;;8.00;2.73;;;;;;;17.20;27.30;100891.97;4969557;29;20031;-82
2022/04/17 11:53:09;;;;;;;7.43;3.53;;;;;;;16.90;27.17;100880.63;4969496;29;20338;-84
2022/04/17 11:55:43;;;;;;;9.02;2.50;;;;;;;16.86;28.19;100878.56;4966419;29;20058;-85
2022/04/17 11:58:11;;;;;;;7.00;2.78;;;;;;;16.75;27.43;100874.56;4973034;29;20082;-84
2022/04/17 12:00:40;;;;;;;9.27;2.88;;;;;;;16.41;28.21;100858.38;4957678;29;20044;-84
2022/04/17 12:03:07;;;;;;;5.22;1.85;;;;;;;16.47;27.72;100846.91;4970779;29;20071;-85
2022/04/17 12:05:36;;;;;;;6.57;2.22;;;;;;;16.44;28.61;100863.31;4955913;29;20058;-83
2022/04/17 12:08:23;;;;;;;6.68;2.30;;;;;;;16.47;28.01;100860.31;4941355;29;20051;-84
2022/04/17 12:10:53;;;;;;;7.13;2.67;;;;;;;16.12;27.54;100855.81;4955276;29;20067;-84